sensor_id;sensor_type;location;lat;lon;timestamp;temperature;humidity
24450;DHT22;13349;50.984;5.822;2023-07-13T00:01:06;16.00;1.00
24450;DHT22;13349;50.984;5.822;2023-07-13T00:03:33;16.00;1.00
24450;DHT22;13349;50.984;5.822;2023-07-13T00:06:01;15.90;1.00
24450;DHT22;13349;50.984;5.822;2023-07-13T00:08:30;15.90;1.00
24450;DHT22;13349;50.984;5.822;2023-07-13T00:10:58;15.90;1.00
24450;DHT22;13349;50.984;5.822;2023-07-13T00:13:25;15.90;1.00
24450;DHT22;13349;50.984;5.822;2023-07-13T00:15:52;15.80;1.00
24450;DHT22;13349;50.984;5.822;2023-07-13T00:18:21;15.70;1.00
24450;DHT22;13349;50.984;5.822;2023-07-13T00:20:48;15.70;1.00
24450;DHT22;13349;50.984;5.822;2023-07-13T00:23:15;15.70;1.00
24450;DHT22;13349;50.984;5.822;2023-07-13T00:25:43;15.70;24.10
24450;DHT22;13349;50.984;5.822;2023-07-13T00:28:10;15.70;95.70
24450;DHT22;13349;50.984;5.822;2023-07-13T00:30:37;15.70;99.90
24450;DHT22;13349;50.984;5.822;2023-07-13T00:33:04;15.70;99.90
24450;DHT22;13349;50.984;5.822;2023-07-13T00:35:33;15.70;99.90
24450;DHT22;13349;50.984;5.822;2023-07-13T00:38:00;15.60;99.90
24450;DHT22;13349;50.984;5.822;2023-07-13T00:40:28;15.70;99.90
24450;DHT22;13349;50.984;5.822;2023-07-13T00:42:56;15.80;99.90
24450;DHT22;13349;50.984;5.822;2023-07-13T00:48:09;16.00;99.90
24450;DHT22;13349;50.984;5.822;2023-07-13T00:50:38;16.20;99.90
24450;DHT22;13349;50.984;5.822;2023-07-13T00:53:05;16.20;99.90
24450;DHT22;13349;50.984;5.822;2023-07-13T00:55:32;16.20;99.90
24450;DHT22;13349;50.984;5.822;2023-07-13T00:58:00;16.00;99.90
24450;DHT22;13349;50.984;5.822;2023-07-13T01:00:27;16.00;99.90
24450;DHT22;13349;50.984;5.822;2023-07-13T01:02:56;16.10;99.90
24450;DHT22;13349;50.984;5.822;2023-07-13T01:05:23;16.20;99.90
24450;DHT22;13349;50.984;5.822;2023-07-13T01:07:52;16.20;99.90
24450;DHT22;13349;50.984;5.822;2023-07-13T01:10:21;16.30;99.90
24450;DHT22;13349;50.984;5.822;2023-07-13T01:12:48;16.20;99.90
24450;DHT22;13349;50.984;5.822;2023-07-13T01:15:34;16.10;99.90
24450;DHT22;13349;50.984;5.822;2023-07-13T01:18:03;16.10;99.90
24450;DHT22;13349;50.984;5.822;2023-07-13T01:20:30;16.00;99.90
24450;DHT22;13349;50.984;5.822;2023-07-13T01:23:03;16.00;99.90
24450;DHT22;13349;50.984;5.822;2023-07-13T01:25:31;16.00;99.90
24450;DHT22;13349;50.984;5.822;2023-07-13T01:27:58;16.00;1.00
24450;DHT22;13349;50.984;5.822;2023-07-13T01:30:25;15.90;1.00
24450;DHT22;13349;50.984;5.822;2023-07-13T01:32:53;15.70;1.00
24450;DHT22;13349;50.984;5.822;2023-07-13T01:35:20;15.60;1.00
24450;DHT22;13349;50.984;5.822;2023-07-13T01:37:47;15.50;1.00
24450;DHT22;13349;50.984;5.822;2023-07-13T01:40:15;15.40;1.00
24450;DHT22;13349;50.984;5.822;2023-07-13T01:42:43;15.40;1.00
24450;DHT22;13349;50.984;5.822;2023-07-13T01:45:10;15.30;1.00
24450;DHT22;13349;50.984;5.822;2023-07-13T01:47:37;15.20;13.50
24450;DHT22;13349;50.984;5.822;2023-07-13T01:50:04;15.20;99.90
24450;DHT22;13349;50.984;5.822;2023-07-13T01:52:32;15.10;99.90
24450;DHT22;13349;50.984;5.822;2023-07-13T01:54:59;15.10;99.90
24450;DHT22;13349;50.984;5.822;2023-07-13T01:57:27;15.10;99.90
24450;DHT22;13349;50.984;5.822;2023-07-13T01:59:54;15.20;99.90
24450;DHT22;13349;50.984;5.822;2023-07-13T02:02:22;15.20;99.90
24450;DHT22;13349;50.984;5.822;2023-07-13T02:04:49;15.20;1.00
24450;DHT22;13349;50.984;5.822;2023-07-13T02:07:16;15.20;1.00
24450;DHT22;13349;50.984;5.822;2023-07-13T02:09:43;15.10;1.00
24450;DHT22;13349;50.984;5.822;2023-07-13T02:12:10;15.10;1.00
24450;DHT22;13349;50.984;5.822;2023-07-13T02:14:39;15.10;1.00
24450;DHT22;13349;50.984;5.822;2023-07-13T02:17:06;15.00;1.00
24450;DHT22;13349;50.984;5.822;2023-07-13T02:19:33;15.00;1.00
24450;DHT22;13349;50.984;5.822;2023-07-13T02:22:00;15.00;1.00
24450;DHT22;13349;50.984;5.822;2023-07-13T02:24:28;15.00;1.00
24450;DHT22;13349;50.984;5.822;2023-07-13T02:26:55;15.00;52.90
24450;DHT22;13349;50.984;5.822;2023-07-13T02:29:22;15.00;99.90
24450;DHT22;13349;50.984;5.822;2023-07-13T02:31:51;14.90;99.90
24450;DHT22;13349;50.984;5.822;2023-07-13T02:34:18;14.90;99.90
24450;DHT22;13349;50.984;5.822;2023-07-13T02:36:45;14.90;99.90
24450;DHT22;13349;50.984;5.822;2023-07-13T02:39:14;14.90;1.00
24450;DHT22;13349;50.984;5.822;2023-07-13T02:41:41;14.90;1.00
24450;DHT22;13349;50.984;5.822;2023-07-13T02:44:08;14.90;1.00
24450;DHT22;13349;50.984;5.822;2023-07-13T02:46:36;14.90;1.00
24450;DHT22;13349;50.984;5.822;2023-07-13T02:49:05;14.80;1.00
24450;DHT22;13349;50.984;5.822;2023-07-13T02:51:33;14.80;1.00
24450;DHT22;13349;50.984;5.822;2023-07-13T02:54:00;14.90;94.20
24450;DHT22;13349;50.984;5.822;2023-07-13T02:56:27;14.90;99.90
24450;DHT22;13349;50.984;5.822;2023-07-13T02:58:55;15.00;99.90
24450;DHT22;13349;50.984;5.822;2023-07-13T03:01:22;15.10;99.90
24450;DHT22;13349;50.984;5.822;2023-07-13T03:03:49;15.10;99.90
24450;DHT22;13349;50.984;5.822;2023-07-13T03:06:18;15.10;1.00
24450;DHT22;13349;50.984;5.822;2023-07-13T03:08:47;15.10;1.00
24450;DHT22;13349;50.984;5.822;2023-07-13T03:11:16;15.10;1.00
24450;DHT22;13349;50.984;5.822;2023-07-13T03:13:44;15.10;1.00
24450;DHT22;13349;50.984;5.822;2023-07-13T03:16:11;15.10;1.00
24450;DHT22;13349;50.984;5.822;2023-07-13T03:18:39;15.10;1.00
24450;DHT22;13349;50.984;5.822;2023-07-13T03:21:06;15.00;1.00
24450;DHT22;13349;50.984;5.822;2023-07-13T03:23:35;14.90;1.00
24450;DHT22;13349;50.984;5.822;2023-07-13T03:26:03;15.00;1.00
24450;DHT22;13349;50.984;5.822;2023-07-13T03:28:30;15.00;1.00
24450;DHT22;13349;50.984;5.822;2023-07-13T03:31:01;15.10;1.00
24450;DHT22;13349;50.984;5.822;2023-07-13T03:33:29;15.20;1.00
24450;DHT22;13349;50.984;5.822;2023-07-13T03:35:56;15.20;1.00
24450;DHT22;13349;50.984;5.822;2023-07-13T03:38:23;15.30;1.00
24450;DHT22;13349;50.984;5.822;2023-07-13T03:40:53;15.20;1.00
24450;DHT22;13349;50.984;5.822;2023-07-13T03:43:20;15.10;1.00
24450;DHT22;13349;50.984;5.822;2023-07-13T03:45:47;15.00;1.00
24450;DHT22;13349;50.984;5.822;2023-07-13T03:48:14;15.00;9.20
24450;DHT22;13349;50.984;5.822;2023-07-13T03:50:41;15.00;99.90
24450;DHT22;13349;50.984;5.822;2023-07-13T03:53:08;15.10;99.90
24450;DHT22;13349;50.984;5.822;2023-07-13T03:55:35;15.00;99.90
24450;DHT22;13349;50.984;5.822;2023-07-13T04:00:46;14.90;99.90
24450;DHT22;13349;50.984;5.822;2023-07-13T04:03:13;15.00;1.00
24450;DHT22;13349;50.984;5.822;2023-07-13T04:05:40;14.90;1.00
24450;DHT22;13349;50.984;5.822;2023-07-13T04:08:07;14.90;1.00
24450;DHT22;13349;50.984;5.822;2023-07-13T04:10:34;14.90;1.00
24450;DHT22;13349;50.984;5.822;2023-07-13T04:13:01;14.90;1.00
24450;DHT22;13349;50.984;5.822;2023-07-13T04:15:29;14.90;99.90
24450;DHT22;13349;50.984;5.822;2023-07-13T04:17:58;14.90;99.90
24450;DHT22;13349;50.984;5.822;2023-07-13T04:20:25;14.90;1.00
24450;DHT22;13349;50.984;5.822;2023-07-13T04:22:53;14.90;1.00
24450;DHT22;13349;50.984;5.822;2023-07-13T04:25:20;14.80;1.00
24450;DHT22;13349;50.984;5.822;2023-07-13T04:27:47;14.80;4.70
24450;DHT22;13349;50.984;5.822;2023-07-13T04:30:14;14.80;99.90
24450;DHT22;13349;50.984;5.822;2023-07-13T04:32:41;14.90;1.00
24450;DHT22;13349;50.984;5.822;2023-07-13T04:35:10;15.00;1.00
24450;DHT22;13349;50.984;5.822;2023-07-13T04:37:37;15.10;1.00
24450;DHT22;13349;50.984;5.822;2023-07-13T04:40:05;15.10;1.00
24450;DHT22;13349;50.984;5.822;2023-07-13T04:42:35;15.20;1.00
24450;DHT22;13349;50.984;5.822;2023-07-13T04:45:02;15.20;1.00
24450;DHT22;13349;50.984;5.822;2023-07-13T04:47:30;15.20;1.00
24450;DHT22;13349;50.984;5.822;2023-07-13T04:49:57;15.30;1.00
24450;DHT22;13349;50.984;5.822;2023-07-13T04:52:25;15.40;1.00
24450;DHT22;13349;50.984;5.822;2023-07-13T04:54:53;15.40;99.90
24450;DHT22;13349;50.984;5.822;2023-07-13T04:57:20;15.40;99.90
24450;DHT22;13349;50.984;5.822;2023-07-13T04:59:47;15.50;99.90
24450;DHT22;13349;50.984;5.822;2023-07-13T05:02:14;15.50;1.00
24450;DHT22;13349;50.984;5.822;2023-07-13T05:04:41;15.50;1.00
24450;DHT22;13349;50.984;5.822;2023-07-13T05:07:09;15.50;1.00
24450;DHT22;13349;50.984;5.822;2023-07-13T05:09:38;15.50;1.00
24450;DHT22;13349;50.984;5.822;2023-07-13T05:12:06;15.50;1.00
24450;DHT22;13349;50.984;5.822;2023-07-13T05:14:33;15.60;1.00
24450;DHT22;13349;50.984;5.822;2023-07-13T05:17:00;15.60;99.90
24450;DHT22;13349;50.984;5.822;2023-07-13T05:19:27;15.70;99.90
24450;DHT22;13349;50.984;5.822;2023-07-13T05:21:54;15.70;99.90
24450;DHT22;13349;50.984;5.822;2023-07-13T05:24:22;15.70;99.90
24450;DHT22;13349;50.984;5.822;2023-07-13T05:26:50;15.80;44.20
24450;DHT22;13349;50.984;5.822;2023-07-13T05:29:17;15.90;1.00
24450;DHT22;13349;50.984;5.822;2023-07-13T05:31:45;16.00;1.00
24450;DHT22;13349;50.984;5.822;2023-07-13T05:34:12;16.00;1.00
24450;DHT22;13349;50.984;5.822;2023-07-13T05:36:39;16.00;1.00
24450;DHT22;13349;50.984;5.822;2023-07-13T05:39:07;15.90;99.90
24450;DHT22;13349;50.984;5.822;2023-07-13T05:41:34;15.80;99.90
24450;DHT22;13349;50.984;5.822;2023-07-13T05:44:02;15.90;1.00
24450;DHT22;13349;50.984;5.822;2023-07-13T05:46:29;15.90;1.00
24450;DHT22;13349;50.984;5.822;2023-07-13T05:48:57;16.00;1.00
24450;DHT22;13349;50.984;5.822;2023-07-13T05:51:24;16.00;1.00
24450;DHT22;13349;50.984;5.822;2023-07-13T05:53:51;16.00;1.00
24450;DHT22;13349;50.984;5.822;2023-07-13T05:56:18;16.10;1.00
24450;DHT22;13349;50.984;5.822;2023-07-13T05:58:45;16.10;1.00
24450;DHT22;13349;50.984;5.822;2023-07-13T06:01:14;16.20;1.00
24450;DHT22;13349;50.984;5.822;2023-07-13T06:03:41;16.30;1.00
24450;DHT22;13349;50.984;5.822;2023-07-13T06:06:09;16.30;1.00
24450;DHT22;13349;50.984;5.822;2023-07-13T06:08:36;16.40;1.00
24450;DHT22;13349;50.984;5.822;2023-07-13T06:11:05;16.40;1.00
24450;DHT22;13349;50.984;5.822;2023-07-13T06:13:32;16.50;99.90
24450;DHT22;13349;50.984;5.822;2023-07-13T06:16:00;16.50;99.90
24450;DHT22;13349;50.984;5.822;2023-07-13T06:18:31;16.50;99.90
24450;DHT22;13349;50.984;5.822;2023-07-13T06:20:58;16.60;99.90
24450;DHT22;13349;50.984;5.822;2023-07-13T06:23:25;16.60;99.90
24450;DHT22;13349;50.984;5.822;2023-07-13T06:25:52;16.60;99.90
24450;DHT22;13349;50.984;5.822;2023-07-13T06:28:19;16.50;99.90
24450;DHT22;13349;50.984;5.822;2023-07-13T06:30:47;16.50;99.90
24450;DHT22;13349;50.984;5.822;2023-07-13T06:33:14;16.60;99.90
24450;DHT22;13349;50.984;5.822;2023-07-13T06:35:43;16.60;99.90
24450;DHT22;13349;50.984;5.822;2023-07-13T06:38:10;16.70;1.00
24450;DHT22;13349;50.984;5.822;2023-07-13T06:40:37;16.60;1.00
24450;DHT22;13349;50.984;5.822;2023-07-13T06:43:04;16.70;1.00
24450;DHT22;13349;50.984;5.822;2023-07-13T06:45:33;16.70;99.90
24450;DHT22;13349;50.984;5.822;2023-07-13T06:48:00;16.70;99.90
24450;DHT22;13349;50.984;5.822;2023-07-13T06:50:27;16.80;99.90
24450;DHT22;13349;50.984;5.822;2023-07-13T06:52:56;16.90;99.90
24450;DHT22;13349;50.984;5.822;2023-07-13T06:55:25;17.00;99.90
24450;DHT22;13349;50.984;5.822;2023-07-13T06:57:52;17.00;99.90
24450;DHT22;13349;50.984;5.822;2023-07-13T07:00:19;17.00;99.90
24450;DHT22;13349;50.984;5.822;2023-07-13T07:02:46;17.00;1.00
24450;DHT22;13349;50.984;5.822;2023-07-13T07:05:13;17.00;1.00
24450;DHT22;13349;50.984;5.822;2023-07-13T07:07:40;17.00;1.00
24450;DHT22;13349;50.984;5.822;2023-07-13T07:10:09;17.20;41.00
24450;DHT22;13349;50.984;5.822;2023-07-13T07:12:36;17.30;1.00
24450;DHT22;13349;50.984;5.822;2023-07-13T07:15:04;17.50;1.00
24450;DHT22;13349;50.984;5.822;2023-07-13T07:17:31;17.60;1.00
24450;DHT22;13349;50.984;5.822;2023-07-13T07:19:58;17.50;99.90
24450;DHT22;13349;50.984;5.822;2023-07-13T07:22:25;17.40;99.90
24450;DHT22;13349;50.984;5.822;2023-07-13T07:24:53;17.40;99.90
24450;DHT22;13349;50.984;5.822;2023-07-13T07:27:21;17.50;99.90
24450;DHT22;13349;50.984;5.822;2023-07-13T07:29:49;17.40;99.90
24450;DHT22;13349;50.984;5.822;2023-07-13T07:32:16;17.30;99.90
24450;DHT22;13349;50.984;5.822;2023-07-13T07:34:43;17.30;99.90
24450;DHT22;13349;50.984;5.822;2023-07-13T07:37:10;17.30;99.90
24450;DHT22;13349;50.984;5.822;2023-07-13T07:39:38;17.10;99.90
24450;DHT22;13349;50.984;5.822;2023-07-13T07:42:05;17.20;99.90
24450;DHT22;13349;50.984;5.822;2023-07-13T07:44:34;17.30;99.90
24450;DHT22;13349;50.984;5.822;2023-07-13T07:47:01;17.30;99.90
24450;DHT22;13349;50.984;5.822;2023-07-13T07:49:28;17.40;99.90
24450;DHT22;13349;50.984;5.822;2023-07-13T07:51:55;17.40;99.90
24450;DHT22;13349;50.984;5.822;2023-07-13T07:54:22;17.50;99.90
24450;DHT22;13349;50.984;5.822;2023-07-13T07:56:49;17.50;99.90
24450;DHT22;13349;50.984;5.822;2023-07-13T07:59:16;17.60;62.20
24450;DHT22;13349;50.984;5.822;2023-07-13T08:01:45;17.70;1.00
24450;DHT22;13349;50.984;5.822;2023-07-13T08:04:13;17.80;1.00
24450;DHT22;13349;50.984;5.822;2023-07-13T08:06:40;18.10;1.00
24450;DHT22;13349;50.984;5.822;2023-07-13T08:09:07;18.00;1.00
24450;DHT22;13349;50.984;5.822;2023-07-13T08:11:34;17.80;99.90
24450;DHT22;13349;50.984;5.822;2023-07-13T08:14:02;17.80;99.90
24450;DHT22;13349;50.984;5.822;2023-07-13T08:16:29;18.00;99.90
24450;DHT22;13349;50.984;5.822;2023-07-13T08:18:59;18.20;99.90
24450;DHT22;13349;50.984;5.822;2023-07-13T08:21:27;18.30;36.40
24450;DHT22;13349;50.984;5.822;2023-07-13T08:23:54;18.40;1.00
24450;DHT22;13349;50.984;5.822;2023-07-13T08:26:22;18.40;1.00
24450;DHT22;13349;50.984;5.822;2023-07-13T08:28:49;18.40;1.00
24450;DHT22;13349;50.984;5.822;2023-07-13T08:31:16;18.60;1.00
24450;DHT22;13349;50.984;5.822;2023-07-13T08:33:43;18.70;1.00
24450;DHT22;13349;50.984;5.822;2023-07-13T08:36:12;18.90;99.90
24450;DHT22;13349;50.984;5.822;2023-07-13T08:38:39;18.90;99.90
24450;DHT22;13349;50.984;5.822;2023-07-13T08:41:11;19.10;99.90
24450;DHT22;13349;50.984;5.822;2023-07-13T08:43:38;19.40;32.60
24450;DHT22;13349;50.984;5.822;2023-07-13T08:46:08;19.50;1.00
24450;DHT22;13349;50.984;5.822;2023-07-13T08:48:38;19.50;1.00
24450;DHT22;13349;50.984;5.822;2023-07-13T08:51:09;19.60;1.00
24450;DHT22;13349;50.984;5.822;2023-07-13T08:53:43;20.00;1.00
24450;DHT22;13349;50.984;5.822;2023-07-13T08:56:28;20.10;1.00
24450;DHT22;13349;50.984;5.822;2023-07-13T08:58:56;19.90;99.90
24450;DHT22;13349;50.984;5.822;2023-07-13T09:01:24;19.90;99.90
24450;DHT22;13349;50.984;5.822;2023-07-13T09:03:56;20.10;99.90
24450;DHT22;13349;50.984;5.822;2023-07-13T09:06:27;20.30;99.90
24450;DHT22;13349;50.984;5.822;2023-07-13T09:08:59;20.10;99.90
24450;DHT22;13349;50.984;5.822;2023-07-13T09:11:29;20.10;99.90
24450;DHT22;13349;50.984;5.822;2023-07-13T09:13:59;20.30;99.90
24450;DHT22;13349;50.984;5.822;2023-07-13T09:16:29;20.40;6.20
24450;DHT22;13349;50.984;5.822;2023-07-13T09:18:56;20.90;1.00
24450;DHT22;13349;50.984;5.822;2023-07-13T09:21:27;20.80;1.00
24450;DHT22;13349;50.984;5.822;2023-07-13T09:23:56;20.90;1.00
24450;DHT22;13349;50.984;5.822;2023-07-13T09:26:27;21.60;1.00
24450;DHT22;13349;50.984;5.822;2023-07-13T09:28:57;21.70;1.00
24450;DHT22;13349;50.984;5.822;2023-07-13T09:31:26;21.70;1.00
24450;DHT22;13349;50.984;5.822;2023-07-13T09:33:56;21.20;1.00
24450;DHT22;13349;50.984;5.822;2023-07-13T09:36:24;21.60;1.00
24450;DHT22;13349;50.984;5.822;2023-07-13T09:38:55;22.00;1.00
24450;DHT22;13349;50.984;5.822;2023-07-13T09:41:26;21.90;99.90
24450;DHT22;13349;50.984;5.822;2023-07-13T09:44:08;21.60;99.90
24450;DHT22;13349;50.984;5.822;2023-07-13T09:46:37;21.90;99.90
24450;DHT22;13349;50.984;5.822;2023-07-13T09:49:04;22.30;99.90
24450;DHT22;13349;50.984;5.822;2023-07-13T09:51:32;22.50;99.90
24450;DHT22;13349;50.984;5.822;2023-07-13T09:54:00;22.30;99.90
24450;DHT22;13349;50.984;5.822;2023-07-13T09:56:28;22.50;99.90
24450;DHT22;13349;50.984;5.822;2023-07-13T09:58:56;23.10;99.90
24450;DHT22;13349;50.984;5.822;2023-07-13T10:01:32;22.50;98.90
24450;DHT22;13349;50.984;5.822;2023-07-13T10:04:00;22.70;93.70
24450;DHT22;13349;50.984;5.822;2023-07-13T10:06:28;23.90;53.90
24450;DHT22;13349;50.984;5.822;2023-07-13T10:08:56;24.50;1.00
24450;DHT22;13349;50.984;5.822;2023-07-13T10:11:25;23.90;1.00
24450;DHT22;13349;50.984;5.822;2023-07-13T10:13:55;22.80;1.00
24450;DHT22;13349;50.984;5.822;2023-07-13T10:16:23;22.40;1.00
24450;DHT22;13349;50.984;5.822;2023-07-13T10:18:53;22.10;1.00
24450;DHT22;13349;50.984;5.822;2023-07-13T10:21:22;21.50;1.00
24450;DHT22;13349;50.984;5.822;2023-07-13T10:23:51;21.30;1.00
24450;DHT22;13349;50.984;5.822;2023-07-13T10:26:22;20.70;1.10
24450;DHT22;13349;50.984;5.822;2023-07-13T10:28:51;20.60;80.00
24450;DHT22;13349;50.984;5.822;2023-07-13T10:31:21;20.60;99.90
24450;DHT22;13349;50.984;5.822;2023-07-13T10:33:48;20.30;99.90
24450;DHT22;13349;50.984;5.822;2023-07-13T10:36:20;20.10;99.90
24450;DHT22;13349;50.984;5.822;2023-07-13T10:38:50;20.30;99.90
24450;DHT22;13349;50.984;5.822;2023-07-13T10:41:19;20.90;99.90
24450;DHT22;13349;50.984;5.822;2023-07-13T10:43:48;21.10;99.90
24450;DHT22;13349;50.984;5.822;2023-07-13T10:46:18;21.20;99.90
24450;DHT22;13349;50.984;5.822;2023-07-13T10:48:46;21.20;99.90
24450;DHT22;13349;50.984;5.822;2023-07-13T10:51:16;21.30;97.70
24450;DHT22;13349;50.984;5.822;2023-07-13T10:53:48;22.40;79.00
24450;DHT22;13349;50.984;5.822;2023-07-13T10:56:35;23.60;8.30
24450;DHT22;13349;50.984;5.822;2023-07-13T10:59:08;23.50;1.00
24450;DHT22;13349;50.984;5.822;2023-07-13T11:01:40;23.20;1.00
24450;DHT22;13349;50.984;5.822;2023-07-13T11:04:08;23.80;1.00
24450;DHT22;13349;50.984;5.822;2023-07-13T11:06:39;23.60;1.00
24450;DHT22;13349;50.984;5.822;2023-07-13T11:12:00;23.60;1.00
24450;DHT22;13349;50.984;5.822;2023-07-13T11:14:29;23.80;1.00
24450;DHT22;13349;50.984;5.822;2023-07-13T11:16:57;24.20;1.00
24450;DHT22;13349;50.984;5.822;2023-07-13T11:22:11;23.60;1.00
24450;DHT22;13349;50.984;5.822;2023-07-13T11:24:51;24.00;1.00
24450;DHT22;13349;50.984;5.822;2023-07-13T11:27:34;24.30;1.00
24450;DHT22;13349;50.984;5.822;2023-07-13T11:32:51;23.40;1.00
24450;DHT22;13349;50.984;5.822;2023-07-13T11:35:21;23.60;1.00
24450;DHT22;13349;50.984;5.822;2023-07-13T11:37:49;23.30;1.00
24450;DHT22;13349;50.984;5.822;2023-07-13T11:40:16;23.20;1.00
24450;DHT22;13349;50.984;5.822;2023-07-13T11:42:45;23.70;1.00
24450;DHT22;13349;50.984;5.822;2023-07-13T11:45:18;24.00;1.00
24450;DHT22;13349;50.984;5.822;2023-07-13T11:47:48;24.10;1.00
24450;DHT22;13349;50.984;5.822;2023-07-13T11:50:18;24.70;1.00
24450;DHT22;13349;50.984;5.822;2023-07-13T11:52:46;24.60;1.00
24450;DHT22;13349;50.984;5.822;2023-07-13T11:55:15;24.90;1.00
24450;DHT22;13349;50.984;5.822;2023-07-13T11:57:44;25.70;1.00
24450;DHT22;13349;50.984;5.822;2023-07-13T12:00:14;25.30;1.00
24450;DHT22;13349;50.984;5.822;2023-07-13T12:02:42;25.20;1.00
24450;DHT22;13349;50.984;5.822;2023-07-13T12:05:11;25.20;1.00
24450;DHT22;13349;50.984;5.822;2023-07-13T12:07:39;24.70;1.00
24450;DHT22;13349;50.984;5.822;2023-07-13T12:10:13;24.50;1.00
24450;DHT22;13349;50.984;5.822;2023-07-13T12:12:46;25.10;1.00
24450;DHT22;13349;50.984;5.822;2023-07-13T12:15:15;24.70;1.00
24450;DHT22;13349;50.984;5.822;2023-07-13T12:17:42;24.90;1.00
24450;DHT22;13349;50.984;5.822;2023-07-13T12:20:17;25.30;1.00
24450;DHT22;13349;50.984;5.822;2023-07-13T12:22:46;24.40;1.00
24450;DHT22;13349;50.984;5.822;2023-07-13T12:25:14;24.10;1.00
24450;DHT22;13349;50.984;5.822;2023-07-13T12:27:42;23.90;1.00
24450;DHT22;13349;50.984;5.822;2023-07-13T12:30:23;24.20;1.00
24450;DHT22;13349;50.984;5.822;2023-07-13T12:32:55;25.10;1.00
24450;DHT22;13349;50.984;5.822;2023-07-13T12:35:23;24.80;1.00
24450;DHT22;13349;50.984;5.822;2023-07-13T12:37:50;24.80;1.00
24450;DHT22;13349;50.984;5.822;2023-07-13T12:40:19;24.70;1.00
24450;DHT22;13349;50.984;5.822;2023-07-13T12:42:48;24.40;1.00
24450;DHT22;13349;50.984;5.822;2023-07-13T12:45:18;24.40;1.00
24450;DHT22;13349;50.984;5.822;2023-07-13T12:47:49;24.20;1.00
24450;DHT22;13349;50.984;5.822;2023-07-13T12:50:18;24.00;1.00
24450;DHT22;13349;50.984;5.822;2023-07-13T12:52:50;24.40;1.00
24450;DHT22;13349;50.984;5.822;2023-07-13T12:55:18;24.70;1.00
24450;DHT22;13349;50.984;5.822;2023-07-13T12:57:48;24.80;1.00
24450;DHT22;13349;50.984;5.822;2023-07-13T13:00:23;24.60;1.00
24450;DHT22;13349;50.984;5.822;2023-07-13T13:02:53;24.40;1.00
24450;DHT22;13349;50.984;5.822;2023-07-13T13:05:21;24.20;1.00
24450;DHT22;13349;50.984;5.822;2023-07-13T13:07:49;24.90;1.00
24450;DHT22;13349;50.984;5.822;2023-07-13T13:10:16;24.80;1.00
24450;DHT22;13349;50.984;5.822;2023-07-13T13:12:43;25.10;1.00
24450;DHT22;13349;50.984;5.822;2023-07-13T13:15:10;25.90;1.00
24450;DHT22;13349;50.984;5.822;2023-07-13T13:17:38;26.20;1.00
24450;DHT22;13349;50.984;5.822;2023-07-13T13:20:13;25.60;1.00
24450;DHT22;13349;50.984;5.822;2023-07-13T13:22:41;25.70;1.00
24450;DHT22;13349;50.984;5.822;2023-07-13T13:25:09;25.50;1.00
24450;DHT22;13349;50.984;5.822;2023-07-13T13:27:37;24.90;1.00
24450;DHT22;13349;50.984;5.822;2023-07-13T13:30:08;24.90;1.00
24450;DHT22;13349;50.984;5.822;2023-07-13T13:32:38;24.50;1.00
24450;DHT22;13349;50.984;5.822;2023-07-13T13:35:05;24.60;1.00
24450;DHT22;13349;50.984;5.822;2023-07-13T13:37:34;24.10;1.00
24450;DHT22;13349;50.984;5.822;2023-07-13T13:40:01;24.00;1.00
24450;DHT22;13349;50.984;5.822;2023-07-13T13:42:29;24.30;1.00
24450;DHT22;13349;50.984;5.822;2023-07-13T13:44:56;24.10;1.00
24450;DHT22;13349;50.984;5.822;2023-07-13T13:47:28;23.50;1.00
24450;DHT22;13349;50.984;5.822;2023-07-13T13:49:56;23.70;1.00
24450;DHT22;13349;50.984;5.822;2023-07-13T13:52:23;23.60;1.00
24450;DHT22;13349;50.984;5.822;2023-07-13T13:54:52;23.50;1.00
24450;DHT22;13349;50.984;5.822;2023-07-13T13:57:22;23.70;1.00
24450;DHT22;13349;50.984;5.822;2023-07-13T13:59:50;23.70;1.00
24450;DHT22;13349;50.984;5.822;2023-07-13T14:02:25;23.70;1.00
24450;DHT22;13349;50.984;5.822;2023-07-13T14:04:54;23.30;1.00
24450;DHT22;13349;50.984;5.822;2023-07-13T14:07:22;23.40;1.00
24450;DHT22;13349;50.984;5.822;2023-07-13T14:09:49;23.30;1.00
24450;DHT22;13349;50.984;5.822;2023-07-13T14:12:17;23.00;1.00
24450;DHT22;13349;50.984;5.822;2023-07-13T14:14:45;22.80;1.00
24450;DHT22;13349;50.984;5.822;2023-07-13T14:17:16;21.90;1.00
24450;DHT22;13349;50.984;5.822;2023-07-13T14:19:47;21.30;1.00
24450;DHT22;13349;50.984;5.822;2023-07-13T14:22:16;20.90;1.00
24450;DHT22;13349;50.984;5.822;2023-07-13T14:24:44;20.60;1.00
24450;DHT22;13349;50.984;5.822;2023-07-13T14:27:11;20.50;1.00
24450;DHT22;13349;50.984;5.822;2023-07-13T14:29:40;20.30;1.00
24450;DHT22;13349;50.984;5.822;2023-07-13T14:32:09;20.20;1.00
24450;DHT22;13349;50.984;5.822;2023-07-13T14:34:36;20.10;1.00
24450;DHT22;13349;50.984;5.822;2023-07-13T14:37:03;20.00;1.00
24450;DHT22;13349;50.984;5.822;2023-07-13T14:39:31;20.00;1.00
24450;DHT22;13349;50.984;5.822;2023-07-13T14:41:58;20.10;34.10
24450;DHT22;13349;50.984;5.822;2023-07-13T14:44:26;20.10;66.60
24450;DHT22;13349;50.984;5.822;2023-07-13T14:46:56;20.10;68.50
24450;DHT22;13349;50.984;5.822;2023-07-13T14:49:24;19.80;91.80
24450;DHT22;13349;50.984;5.822;2023-07-13T14:51:51;19.50;99.90
24450;DHT22;13349;50.984;5.822;2023-07-13T14:54:19;19.50;99.90
24450;DHT22;13349;50.984;5.822;2023-07-13T14:56:46;19.40;99.90
24450;DHT22;13349;50.984;5.822;2023-07-13T14:59:14;19.50;99.90
24450;DHT22;13349;50.984;5.822;2023-07-13T15:01:41;19.50;99.90
24450;DHT22;13349;50.984;5.822;2023-07-13T15:04:10;19.60;99.90
24450;DHT22;13349;50.984;5.822;2023-07-13T15:06:57;19.60;99.90
24450;DHT22;13349;50.984;5.822;2023-07-13T15:09:24;19.80;99.90
24450;DHT22;13349;50.984;5.822;2023-07-13T15:11:52;20.00;99.90
24450;DHT22;13349;50.984;5.822;2023-07-13T15:14:19;20.30;99.90
24450;DHT22;13349;50.984;5.822;2023-07-13T15:16:46;20.50;99.90
24450;DHT22;13349;50.984;5.822;2023-07-13T15:19:15;20.50;48.80
24450;DHT22;13349;50.984;5.822;2023-07-13T15:21:43;20.60;6.10
24450;DHT22;13349;50.984;5.822;2023-07-13T15:24:10;20.80;1.00
24450;DHT22;13349;50.984;5.822;2023-07-13T15:26:38;20.70;1.00
24450;DHT22;13349;50.984;5.822;2023-07-13T15:29:05;21.00;1.00
24450;DHT22;13349;50.984;5.822;2023-07-13T15:31:33;21.20;1.00
24450;DHT22;13349;50.984;5.822;2023-07-13T15:34:03;21.30;1.00
24450;DHT22;13349;50.984;5.822;2023-07-13T15:36:33;21.50;1.00
24450;DHT22;13349;50.984;5.822;2023-07-13T15:39:00;21.90;1.00
24450;DHT22;13349;50.984;5.822;2023-07-13T15:41:28;22.20;1.00
24450;DHT22;13349;50.984;5.822;2023-07-13T15:43:55;22.60;1.00
24450;DHT22;13349;50.984;5.822;2023-07-13T15:46:24;23.00;1.00
24450;DHT22;13349;50.984;5.822;2023-07-13T15:48:52;23.60;1.00
24450;DHT22;13349;50.984;5.822;2023-07-13T15:51:20;23.80;1.00
24450;DHT22;13349;50.984;5.822;2023-07-13T15:53:49;24.00;1.00
24450;DHT22;13349;50.984;5.822;2023-07-13T15:56:20;24.10;1.00
24450;DHT22;13349;50.984;5.822;2023-07-13T15:58:48;24.30;1.00
24450;DHT22;13349;50.984;5.822;2023-07-13T16:01:16;24.70;1.00